sensor_id;sensor_type;location;lat;lon;timestamp;temperature;humidity
3758;DHT22;1894;51.038;13.692;2024-03-02T00:00:40;9.40;99.90
3758;DHT22;1894;51.038;13.692;2024-03-02T00:03:07;9.40;99.90
3758;DHT22;1894;51.038;13.692;2024-03-02T00:05:36;9.40;99.90
3758;DHT22;1894;51.038;13.692;2024-03-02T00:08:05;9.40;99.90
3758;DHT22;1894;51.038;13.692;2024-03-02T00:10:40;9.30;99.90
3758;DHT22;1894;51.038;13.692;2024-03-02T00:13:12;9.40;99.90
3758;DHT22;1894;51.038;13.692;2024-03-02T00:15:47;9.50;99.90
3758;DHT22;1894;51.038;13.692;2024-03-02T00:18:34;9.50;99.90
3758;DHT22;1894;51.038;13.692;2024-03-02T00:21:03;9.60;99.90
3758;DHT22;1894;51.038;13.692;2024-03-02T00:23:31;9.60;99.90
3758;DHT22;1894;51.038;13.692;2024-03-02T00:25:59;9.70;99.90
3758;DHT22;1894;51.038;13.692;2024-03-02T00:28:34;9.70;99.90
3758;DHT22;1894;51.038;13.692;2024-03-02T00:31:13;9.70;99.90
3758;DHT22;1894;51.038;13.692;2024-03-02T00:33:43;9.70;99.90
3758;DHT22;1894;51.038;13.692;2024-03-02T00:36:31;9.70;99.90
3758;DHT22;1894;51.038;13.692;2024-03-02T00:38:59;9.70;99.90
3758;DHT22;1894;51.038;13.692;2024-03-02T00:41:30;9.80;99.90
3758;DHT22;1894;51.038;13.692;2024-03-02T00:44:07;9.80;99.90
3758;DHT22;1894;51.038;13.692;2024-03-02T00:46:38;9.70;99.90
3758;DHT22;1894;51.038;13.692;2024-03-02T00:49:23;9.70;99.90
3758;DHT22;1894;51.038;13.692;2024-03-02T00:51:52;9.70;99.90
3758;DHT22;1894;51.038;13.692;2024-03-02T00:54:22;9.70;99.90
3758;DHT22;1894;51.038;13.692;2024-03-02T00:56:52;9.60;99.90
3758;DHT22;1894;51.038;13.692;2024-03-02T00:59:24;9.60;99.90
3758;DHT22;1894;51.038;13.692;2024-03-02T01:01:52;9.60;99.90
3758;DHT22;1894;51.038;13.692;2024-03-02T01:04:19;9.50;99.90
3758;DHT22;1894;51.038;13.692;2024-03-02T01:06:46;9.40;99.90
3758;DHT22;1894;51.038;13.692;2024-03-02T01:09:13;9.30;99.90
3758;DHT22;1894;51.038;13.692;2024-03-02T01:11:41;9.30;99.90
3758;DHT22;1894;51.038;13.692;2024-03-02T01:14:08;9.30;99.90
3758;DHT22;1894;51.038;13.692;2024-03-02T01:16:35;9.40;99.90
3758;DHT22;1894;51.038;13.692;2024-03-02T01:19:02;9.50;99.90
3758;DHT22;1894;51.038;13.692;2024-03-02T01:21:29;9.60;99.90
3758;DHT22;1894;51.038;13.692;2024-03-02T01:23:56;9.60;99.90
3758;DHT22;1894;51.038;13.692;2024-03-02T01:26:23;9.30;99.90
3758;DHT22;1894;51.038;13.692;2024-03-02T01:28:51;9.30;99.90
3758;DHT22;1894;51.038;13.692;2024-03-02T01:31:17;9.20;99.90
3758;DHT22;1894;51.038;13.692;2024-03-02T01:33:45;9.20;99.90
3758;DHT22;1894;51.038;13.692;2024-03-02T01:36:12;9.20;99.90
3758;DHT22;1894;51.038;13.692;2024-03-02T01:38:39;9.30;99.90
3758;DHT22;1894;51.038;13.692;2024-03-02T01:41:06;9.30;99.90
3758;DHT22;1894;51.038;13.692;2024-03-02T01:43:33;9.30;99.90
3758;DHT22;1894;51.038;13.692;2024-03-02T01:46:03;9.30;99.90
3758;DHT22;1894;51.038;13.692;2024-03-02T01:48:30;9.40;99.90
3758;DHT22;1894;51.038;13.692;2024-03-02T01:50:58;9.40;99.90
3758;DHT22;1894;51.038;13.692;2024-03-02T01:53:25;9.50;99.90
3758;DHT22;1894;51.038;13.692;2024-03-02T01:55:52;9.60;99.90
3758;DHT22;1894;51.038;13.692;2024-03-02T01:58:19;9.60;99.90
3758;DHT22;1894;51.038;13.692;2024-03-02T02:00:46;9.60;99.90
3758;DHT22;1894;51.038;13.692;2024-03-02T02:03:15;9.60;99.90
3758;DHT22;1894;51.038;13.692;2024-03-02T02:05:42;9.60;99.90
3758;DHT22;1894;51.038;13.692;2024-03-02T02:08:10;9.60;99.90
3758;DHT22;1894;51.038;13.692;2024-03-02T02:10:37;9.60;99.90
3758;DHT22;1894;51.038;13.692;2024-03-02T02:13:04;9.50;99.90
3758;DHT22;1894;51.038;13.692;2024-03-02T02:15:31;9.40;99.90
3758;DHT22;1894;51.038;13.692;2024-03-02T02:18:01;9.40;99.90
3758;DHT22;1894;51.038;13.692;2024-03-02T02:20:28;9.40;99.90
3758;DHT22;1894;51.038;13.692;2024-03-02T02:23:00;9.30;99.90
3758;DHT22;1894;51.038;13.692;2024-03-02T02:25:28;9.40;99.90
3758;DHT22;1894;51.038;13.692;2024-03-02T02:27:57;9.40;99.90
3758;DHT22;1894;51.038;13.692;2024-03-02T02:30:26;9.30;99.90
3758;DHT22;1894;51.038;13.692;2024-03-02T02:32:56;9.30;99.90
3758;DHT22;1894;51.038;13.692;2024-03-02T02:35:23;9.20;99.90
3758;DHT22;1894;51.038;13.692;2024-03-02T02:37:52;9.20;99.90
3758;DHT22;1894;51.038;13.692;2024-03-02T02:40:21;9.30;99.90
3758;DHT22;1894;51.038;13.692;2024-03-02T02:42:49;9.30;99.90
3758;DHT22;1894;51.038;13.692;2024-03-02T02:45:16;9.30;99.90
3758;DHT22;1894;51.038;13.692;2024-03-02T02:47:44;9.40;99.90
3758;DHT22;1894;51.038;13.692;2024-03-02T02:50:12;9.40;99.90
3758;DHT22;1894;51.038;13.692;2024-03-02T02:52:41;9.40;99.90
3758;DHT22;1894;51.038;13.692;2024-03-02T02:55:10;9.50;99.90
3758;DHT22;1894;51.038;13.692;2024-03-02T02:57:39;9.50;99.90
3758;DHT22;1894;51.038;13.692;2024-03-02T03:00:15;9.60;99.90
3758;DHT22;1894;51.038;13.692;2024-03-02T03:02:47;9.50;99.90
3758;DHT22;1894;51.038;13.692;2024-03-02T03:05:17;9.40;99.90
3758;DHT22;1894;51.038;13.692;2024-03-02T03:07:45;9.40;99.90
3758;DHT22;1894;51.038;13.692;2024-03-02T03:10:13;9.30;99.90
3758;DHT22;1894;51.038;13.692;2024-03-02T03:12:42;9.40;99.90
3758;DHT22;1894;51.038;13.692;2024-03-02T03:15:11;9.50;99.90
3758;DHT22;1894;51.038;13.692;2024-03-02T03:17:39;9.50;99.90
3758;DHT22;1894;51.038;13.692;2024-03-02T03:20:06;9.50;99.90
3758;DHT22;1894;51.038;13.692;2024-03-02T03:22:37;9.30;99.90
3758;DHT22;1894;51.038;13.692;2024-03-02T03:25:05;9.30;99.90
3758;DHT22;1894;51.038;13.692;2024-03-02T03:27:35;9.30;99.90
3758;DHT22;1894;51.038;13.692;2024-03-02T03:30:03;9.30;99.90
3758;DHT22;1894;51.038;13.692;2024-03-02T03:32:30;9.20;99.90
3758;DHT22;1894;51.038;13.692;2024-03-02T03:34:57;9.10;99.90
3758;DHT22;1894;51.038;13.692;2024-03-02T03:37:24;9.10;99.90
3758;DHT22;1894;51.038;13.692;2024-03-02T03:39:53;9.20;99.90
3758;DHT22;1894;51.038;13.692;2024-03-02T03:42:21;9.20;99.90
3758;DHT22;1894;51.038;13.692;2024-03-02T03:44:48;9.20;99.90
3758;DHT22;1894;51.038;13.692;2024-03-02T03:47:15;9.20;99.90
3758;DHT22;1894;51.038;13.692;2024-03-02T03:49:42;9.10;99.90
3758;DHT22;1894;51.038;13.692;2024-03-02T03:52:09;9.00;99.90
3758;DHT22;1894;51.038;13.692;2024-03-02T03:54:36;9.10;99.90
3758;DHT22;1894;51.038;13.692;2024-03-02T03:57:05;9.10;99.90
3758;DHT22;1894;51.038;13.692;2024-03-02T03:59:32;9.20;99.90
3758;DHT22;1894;51.038;13.692;2024-03-02T04:01:59;9.10;99.90
3758;DHT22;1894;51.038;13.692;2024-03-02T04:04:26;9.20;99.90
3758;DHT22;1894;51.038;13.692;2024-03-02T04:06:54;9.20;99.90
3758;DHT22;1894;51.038;13.692;2024-03-02T04:09:21;9.00;99.90
3758;DHT22;1894;51.038;13.692;2024-03-02T04:11:48;9.10;99.90
3758;DHT22;1894;51.038;13.692;2024-03-02T04:14:15;9.10;99.90
3758;DHT22;1894;51.038;13.692;2024-03-02T04:16:42;9.20;99.90
3758;DHT22;1894;51.038;13.692;2024-03-02T04:19:10;9.20;99.90
3758;DHT22;1894;51.038;13.692;2024-03-02T04:21:37;9.20;99.90
3758;DHT22;1894;51.038;13.692;2024-03-02T04:24:04;9.20;99.90
3758;DHT22;1894;51.038;13.692;2024-03-02T04:26:31;9.20;99.90
3758;DHT22;1894;51.038;13.692;2024-03-02T04:28:58;9.20;99.90
3758;DHT22;1894;51.038;13.692;2024-03-02T04:31:25;9.20;99.90
3758;DHT22;1894;51.038;13.692;2024-03-02T04:33:53;9.30;99.90
3758;DHT22;1894;51.038;13.692;2024-03-02T04:36:20;9.30;99.90
3758;DHT22;1894;51.038;13.692;2024-03-02T04:38:48;9.30;99.90
3758;DHT22;1894;51.038;13.692;2024-03-02T04:41:15;9.30;99.90
3758;DHT22;1894;51.038;13.692;2024-03-02T04:43:42;9.40;99.90
3758;DHT22;1894;51.038;13.692;2024-03-02T04:46:09;9.40;99.90
3758;DHT22;1894;51.038;13.692;2024-03-02T04:48:37;9.50;99.90
3758;DHT22;1894;51.038;13.692;2024-03-02T04:51:05;9.50;99.90
3758;DHT22;1894;51.038;13.692;2024-03-02T04:53:32;9.50;99.90
3758;DHT22;1894;51.038;13.692;2024-03-02T04:55:59;9.50;99.90
3758;DHT22;1894;51.038;13.692;2024-03-02T04:58:44;9.50;99.90
3758;DHT22;1894;51.038;13.692;2024-03-02T05:01:11;9.40;99.90
3758;DHT22;1894;51.038;13.692;2024-03-02T05:03:39;9.30;99.90
3758;DHT22;1894;51.038;13.692;2024-03-02T05:06:06;9.30;99.90
3758;DHT22;1894;51.038;13.692;2024-03-02T05:08:39;9.20;99.90
3758;DHT22;1894;51.038;13.692;2024-03-02T05:11:06;9.20;99.90
3758;DHT22;1894;51.038;13.692;2024-03-02T05:13:52;9.20;99.90
3758;DHT22;1894;51.038;13.692;2024-03-02T05:16:19;9.20;99.90
3758;DHT22;1894;51.038;13.692;2024-03-02T05:18:46;9.20;99.90
3758;DHT22;1894;51.038;13.692;2024-03-02T05:21:13;9.30;99.90
3758;DHT22;1894;51.038;13.692;2024-03-02T05:23:40;9.40;99.90
3758;DHT22;1894;51.038;13.692;2024-03-02T05:26:07;9.40;99.90
3758;DHT22;1894;51.038;13.692;2024-03-02T05:28:36;9.40;99.90
3758;DHT22;1894;51.038;13.692;2024-03-02T05:31:03;9.40;99.90
3758;DHT22;1894;51.038;13.692;2024-03-02T05:33:31;9.50;99.90
3758;DHT22;1894;51.038;13.692;2024-03-02T05:35:59;9.50;99.90
3758;DHT22;1894;51.038;13.692;2024-03-02T05:38:28;9.40;99.90
3758;DHT22;1894;51.038;13.692;2024-03-02T05:40:55;9.50;99.90
3758;DHT22;1894;51.038;13.692;2024-03-02T05:43:22;9.50;99.90
3758;DHT22;1894;51.038;13.692;2024-03-02T05:45:49;9.50;99.90
3758;DHT22;1894;51.038;13.692;2024-03-02T05:48:16;9.50;99.90
3758;DHT22;1894;51.038;13.692;2024-03-02T05:50:44;9.40;99.90
3758;DHT22;1894;51.038;13.692;2024-03-02T05:53:11;9.30;99.90
3758;DHT22;1894;51.038;13.692;2024-03-02T05:55:38;9.20;99.90
3758;DHT22;1894;51.038;13.692;2024-03-02T05:58:05;9.30;99.90
3758;DHT22;1894;51.038;13.692;2024-03-02T06:00:50;9.20;99.90
3758;DHT22;1894;51.038;13.692;2024-03-02T06:03:17;9.30;99.90
3758;DHT22;1894;51.038;13.692;2024-03-02T06:05:44;9.30;99.90
3758;DHT22;1894;51.038;13.692;2024-03-02T06:08:11;9.40;99.90
3758;DHT22;1894;51.038;13.692;2024-03-02T06:10:38;9.40;99.90
3758;DHT22;1894;51.038;13.692;2024-03-02T06:13:06;9.50;99.90
3758;DHT22;1894;51.038;13.692;2024-03-02T06:15:34;9.50;99.90
3758;DHT22;1894;51.038;13.692;2024-03-02T06:18:03;9.50;99.90
3758;DHT22;1894;51.038;13.692;2024-03-02T06:20:30;9.50;99.90
3758;DHT22;1894;51.038;13.692;2024-03-02T06:23:02;9.50;99.90
3758;DHT22;1894;51.038;13.692;2024-03-02T06:25:30;9.50;99.90
3758;DHT22;1894;51.038;13.692;2024-03-02T06:27:57;9.40;99.90
3758;DHT22;1894;51.038;13.692;2024-03-02T06:30:24;9.40;99.90
3758;DHT22;1894;51.038;13.692;2024-03-02T06:32:51;9.30;99.90
3758;DHT22;1894;51.038;13.692;2024-03-02T06:35:18;9.40;99.90
3758;DHT22;1894;51.038;13.692;2024-03-02T06:37:46;9.40;99.90
3758;DHT22;1894;51.038;13.692;2024-03-02T06:40:13;9.40;99.90
3758;DHT22;1894;51.038;13.692;2024-03-02T06:42:40;9.40;99.90
3758;DHT22;1894;51.038;13.692;2024-03-02T06:45:08;9.40;99.90
3758;DHT22;1894;51.038;13.692;2024-03-02T06:47:35;9.40;99.90
3758;DHT22;1894;51.038;13.692;2024-03-02T06:50:02;9.50;99.90
3758;DHT22;1894;51.038;13.692;2024-03-02T06:52:29;9.50;99.90
3758;DHT22;1894;51.038;13.692;2024-03-02T06:54:56;9.50;99.90
3758;DHT22;1894;51.038;13.692;2024-03-02T06:57:23;9.50;99.90
3758;DHT22;1894;51.038;13.692;2024-03-02T06:59:51;9.50;99.90
3758;DHT22;1894;51.038;13.692;2024-03-02T07:02:21;9.50;99.90
3758;DHT22;1894;51.038;13.692;2024-03-02T07:04:55;9.40;99.90
3758;DHT22;1894;51.038;13.692;2024-03-02T07:07:23;9.40;99.90
3758;DHT22;1894;51.038;13.692;2024-03-02T07:09:50;9.40;99.90
3758;DHT22;1894;51.038;13.692;2024-03-02T07:12:17;9.30;99.90
3758;DHT22;1894;51.038;13.692;2024-03-02T07:14:44;9.20;99.90
3758;DHT22;1894;51.038;13.692;2024-03-02T07:17:30;9.20;99.90
3758;DHT22;1894;51.038;13.692;2024-03-02T07:19:57;9.30;99.90
3758;DHT22;1894;51.038;13.692;2024-03-02T07:22:25;9.30;99.90
3758;DHT22;1894;51.038;13.692;2024-03-02T07:24:52;9.40;99.90
3758;DHT22;1894;51.038;13.692;2024-03-02T07:27:19;9.50;99.90
3758;DHT22;1894;51.038;13.692;2024-03-02T07:29:46;9.50;99.90
3758;DHT22;1894;51.038;13.692;2024-03-02T07:32:13;9.50;99.90
3758;DHT22;1894;51.038;13.692;2024-03-02T07:34:40;9.60;99.90
3758;DHT22;1894;51.038;13.692;2024-03-02T07:37:07;9.60;99.90
3758;DHT22;1894;51.038;13.692;2024-03-02T07:39:34;9.60;99.90
3758;DHT22;1894;51.038;13.692;2024-03-02T07:42:02;9.60;99.90
3758;DHT22;1894;51.038;13.692;2024-03-02T07:44:29;9.60;99.90
3758;DHT22;1894;51.038;13.692;2024-03-02T07:46:56;9.60;99.90
3758;DHT22;1894;51.038;13.692;2024-03-02T07:49:23;9.60;99.90
3758;DHT22;1894;51.038;13.692;2024-03-02T07:51:50;9.60;99.90
3758;DHT22;1894;51.038;13.692;2024-03-02T07:54:20;9.70;99.90
3758;DHT22;1894;51.038;13.692;2024-03-02T07:56:47;9.70;99.90
3758;DHT22;1894;51.038;13.692;2024-03-02T07:59:17;9.80;99.90
3758;DHT22;1894;51.038;13.692;2024-03-02T08:01:45;9.90;99.90
3758;DHT22;1894;51.038;13.692;2024-03-02T08:04:12;9.90;99.90
3758;DHT22;1894;51.038;13.692;2024-03-02T08:06:39;9.80;99.90
3758;DHT22;1894;51.038;13.692;2024-03-02T08:09:06;9.70;99.90
3758;DHT22;1894;51.038;13.692;2024-03-02T08:11:36;9.70;99.90
3758;DHT22;1894;51.038;13.692;2024-03-02T08:14:06;9.70;99.90
3758;DHT22;1894;51.038;13.692;2024-03-02T08:16:33;9.70;99.90
3758;DHT22;1894;51.038;13.692;2024-03-02T08:19:01;9.80;99.90
3758;DHT22;1894;51.038;13.692;2024-03-02T08:21:28;9.80;99.90
3758;DHT22;1894;51.038;13.692;2024-03-02T08:23:57;9.90;99.90
3758;DHT22;1894;51.038;13.692;2024-03-02T08:26:25;10.00;99.90
3758;DHT22;1894;51.038;13.692;2024-03-02T08:28:52;10.00;99.90
3758;DHT22;1894;51.038;13.692;2024-03-02T08:31:19;10.10;99.90
3758;DHT22;1894;51.038;13.692;2024-03-02T08:33:46;10.20;99.90
3758;DHT22;1894;51.038;13.692;2024-03-02T08:36:13;10.20;99.90
3758;DHT22;1894;51.038;13.692;2024-03-02T08:38:41;10.20;99.90
3758;DHT22;1894;51.038;13.692;2024-03-02T08:41:11;10.30;99.90
3758;DHT22;1894;51.038;13.692;2024-03-02T08:43:41;10.20;99.90
3758;DHT22;1894;51.038;13.692;2024-03-02T08:46:09;10.30;99.90
3758;DHT22;1894;51.038;13.692;2024-03-02T08:48:36;10.40;99.90
3758;DHT22;1894;51.038;13.692;2024-03-02T08:51:03;10.40;99.90
3758;DHT22;1894;51.038;13.692;2024-03-02T08:53:34;10.40;99.90
3758;DHT22;1894;51.038;13.692;2024-03-02T08:56:01;10.40;99.90
3758;DHT22;1894;51.038;13.692;2024-03-02T08:58:29;10.60;99.90
3758;DHT22;1894;51.038;13.692;2024-03-02T09:00:56;10.70;99.90
3758;DHT22;1894;51.038;13.692;2024-03-02T09:03:23;10.80;99.90
3758;DHT22;1894;51.038;13.692;2024-03-02T09:05:50;11.00;99.90
3758;DHT22;1894;51.038;13.692;2024-03-02T09:08:17;11.40;99.90
3758;DHT22;1894;51.038;13.692;2024-03-02T09:10:44;11.80;99.90
3758;DHT22;1894;51.038;13.692;2024-03-02T09:13:12;12.10;99.90
3758;DHT22;1894;51.038;13.692;2024-03-02T09:15:39;12.40;99.90
3758;DHT22;1894;51.038;13.692;2024-03-02T09:18:07;12.60;99.90
3758;DHT22;1894;51.038;13.692;2024-03-02T09:20:34;12.80;99.90
3758;DHT22;1894;51.038;13.692;2024-03-02T09:23:02;12.50;99.90
3758;DHT22;1894;51.038;13.692;2024-03-02T09:25:29;12.60;99.90
3758;DHT22;1894;51.038;13.692;2024-03-02T09:27:56;12.70;99.90
3758;DHT22;1894;51.038;13.692;2024-03-02T09:30:23;12.50;99.90
3758;DHT22;1894;51.038;13.692;2024-03-02T09:32:50;12.60;99.90
3758;DHT22;1894;51.038;13.692;2024-03-02T09:35:18;12.70;99.90
3758;DHT22;1894;51.038;13.692;2024-03-02T09:37:45;12.70;99.90
3758;DHT22;1894;51.038;13.692;2024-03-02T09:40:13;12.60;99.90
3758;DHT22;1894;51.038;13.692;2024-03-02T09:42:41;12.70;99.90
3758;DHT22;1894;51.038;13.692;2024-03-02T09:45:09;12.70;99.90
3758;DHT22;1894;51.038;13.692;2024-03-02T09:47:37;12.50;99.90
3758;DHT22;1894;51.038;13.692;2024-03-02T09:50:05;12.60;99.90
3758;DHT22;1894;51.038;13.692;2024-03-02T09:52:33;12.40;99.90
3758;DHT22;1894;51.038;13.692;2024-03-02T09:55:00;12.30;99.90
3758;DHT22;1894;51.038;13.692;2024-03-02T09:57:27;12.40;99.90
3758;DHT22;1894;51.038;13.692;2024-03-02T09:59:54;12.50;99.90
3758;DHT22;1894;51.038;13.692;2024-03-02T10:02:21;12.50;99.90
3758;DHT22;1894;51.038;13.692;2024-03-02T10:04:49;12.40;99.90
3758;DHT22;1894;51.038;13.692;2024-03-02T10:07:18;12.30;99.90
3758;DHT22;1894;51.038;13.692;2024-03-02T10:09:47;12.30;99.90
3758;DHT22;1894;51.038;13.692;2024-03-02T10:12:17;12.40;99.90
3758;DHT22;1894;51.038;13.692;2024-03-02T10:14:45;12.40;99.90
3758;DHT22;1894;51.038;13.692;2024-03-02T10:17:13;12.30;99.90
3758;DHT22;1894;51.038;13.692;2024-03-02T10:19:42;12.30;99.90
3758;DHT22;1894;51.038;13.692;2024-03-02T10:22:09;12.00;99.90
3758;DHT22;1894;51.038;13.692;2024-03-02T10:24:44;11.90;99.90
3758;DHT22;1894;51.038;13.692;2024-03-02T10:27:27;12.00;99.90
3758;DHT22;1894;51.038;13.692;2024-03-02T10:29:54;12.00;99.90
3758;DHT22;1894;51.038;13.692;2024-03-02T10:32:22;12.10;99.90
3758;DHT22;1894;51.038;13.692;2024-03-02T10:34:50;12.20;99.90
3758;DHT22;1894;51.038;13.692;2024-03-02T10:37:17;12.20;99.90
3758;DHT22;1894;51.038;13.692;2024-03-02T10:39:46;12.60;99.90
3758;DHT22;1894;51.038;13.692;2024-03-02T10:42:14;12.50;99.90
3758;DHT22;1894;51.038;13.692;2024-03-02T10:44:42;12.80;99.90
3758;DHT22;1894;51.038;13.692;2024-03-02T10:47:12;13.20;99.90
3758;DHT22;1894;51.038;13.692;2024-03-02T10:49:42;13.50;99.90
3758;DHT22;1894;51.038;13.692;2024-03-02T10:52:10;13.90;99.90
3758;DHT22;1894;51.038;13.692;2024-03-02T10:54:37;14.20;99.90
3758;DHT22;1894;51.038;13.692;2024-03-02T10:57:07;14.50;99.90
3758;DHT22;1894;51.038;13.692;2024-03-02T10:59:37;14.60;99.90
3758;DHT22;1894;51.038;13.692;2024-03-02T11:02:14;14.60;99.90
3758;DHT22;1894;51.038;13.692;2024-03-02T11:04:42;14.90;99.90
3758;DHT22;1894;51.038;13.692;2024-03-02T11:07:11;14.30;99.90
3758;DHT22;1894;51.038;13.692;2024-03-02T11:09:49;14.20;99.90
3758;DHT22;1894;51.038;13.692;2024-03-02T11:12:48;14.80;99.90
3758;DHT22;1894;51.038;13.692;2024-03-02T11:15:21;14.70;99.90
3758;DHT22;1894;51.038;13.692;2024-03-02T11:17:53;14.70;99.90
3758;DHT22;1894;51.038;13.692;2024-03-02T11:20:21;15.00;99.90
3758;DHT22;1894;51.038;13.692;2024-03-02T11:22:48;15.00;99.90
3758;DHT22;1894;51.038;13.692;2024-03-02T11:25:26;14.70;99.90
3758;DHT22;1894;51.038;13.692;2024-03-02T11:33:06;16.10;99.90
3758;DHT22;1894;51.038;13.692;2024-03-02T11:35:44;16.60;99.90
3758;DHT22;1894;51.038;13.692;2024-03-02T11:38:18;15.90;99.90
3758;DHT22;1894;51.038;13.692;2024-03-02T11:40:46;15.80;99.90
3758;DHT22;1894;51.038;13.692;2024-03-02T11:43:13;15.80;99.90
3758;DHT22;1894;51.038;13.692;2024-03-02T11:45:42;16.00;99.90
3758;DHT22;1894;51.038;13.692;2024-03-02T11:48:14;15.60;99.90
3758;DHT22;1894;51.038;13.692;2024-03-02T11:50:42;15.70;99.90
3758;DHT22;1894;51.038;13.692;2024-03-02T11:53:13;15.70;99.90
3758;DHT22;1894;51.038;13.692;2024-03-02T11:55:41;15.80;99.90
3758;DHT22;1894;51.038;13.692;2024-03-02T11:58:10;15.90;99.90
3758;DHT22;1894;51.038;13.692;2024-03-02T12:00:37;16.40;99.90
3758;DHT22;1894;51.038;13.692;2024-03-02T12:03:07;16.30;99.90
3758;DHT22;1894;51.038;13.692;2024-03-02T12:05:35;16.20;99.90
3758;DHT22;1894;51.038;13.692;2024-03-02T12:08:05;16.00;99.90
3758;DHT22;1894;51.038;13.692;2024-03-02T12:10:35;15.40;99.90
3758;DHT22;1894;51.038;13.692;2024-03-02T12:13:04;15.40;99.90
3758;DHT22;1894;51.038;13.692;2024-03-02T12:15:39;15.20;99.90
3758;DHT22;1894;51.038;13.692;2024-03-02T12:18:07;15.40;99.90
3758;DHT22;1894;51.038;13.692;2024-03-02T12:20:34;15.40;99.90
3758;DHT22;1894;51.038;13.692;2024-03-02T12:23:04;15.70;99.90
3758;DHT22;1894;51.038;13.692;2024-03-02T12:25:32;15.70;99.90
3758;DHT22;1894;51.038;13.692;2024-03-02T12:28:02;15.40;99.90
3758;DHT22;1894;51.038;13.692;2024-03-02T12:30:31;15.10;99.90
3758;DHT22;1894;51.038;13.692;2024-03-02T12:33:02;15.10;99.90
3758;DHT22;1894;51.038;13.692;2024-03-02T12:35:30;14.90;99.90
3758;DHT22;1894;51.038;13.692;2024-03-02T12:37:57;14.90;99.90
3758;DHT22;1894;51.038;13.692;2024-03-02T12:40:25;15.00;99.90
3758;DHT22;1894;51.038;13.692;2024-03-02T12:42:52;14.90;99.90
3758;DHT22;1894;51.038;13.692;2024-03-02T12:45:19;14.70;99.90
3758;DHT22;1894;51.038;13.692;2024-03-02T12:47:52;15.00;99.90
3758;DHT22;1894;51.038;13.692;2024-03-02T12:50:20;15.30;99.90
3758;DHT22;1894;51.038;13.692;2024-03-02T12:52:52;15.10;99.90
3758;DHT22;1894;51.038;13.692;2024-03-02T12:55:21;15.50;99.90
3758;DHT22;1894;51.038;13.692;2024-03-02T12:57:53;16.60;99.90
3758;DHT22;1894;51.038;13.692;2024-03-02T13:00:22;17.20;99.90
3758;DHT22;1894;51.038;13.692;2024-03-02T13:02:51;17.40;99.90
3758;DHT22;1894;51.038;13.692;2024-03-02T13:05:19;16.80;99.90
3758;DHT22;1894;51.038;13.692;2024-03-02T13:07:47;16.50;99.90
3758;DHT22;1894;51.038;13.692;2024-03-02T13:10:16;16.20;99.90
3758;DHT22;1894;51.038;13.692;2024-03-02T13:12:45;16.40;99.90
3758;DHT22;1894;51.038;13.692;2024-03-02T13:15:12;16.60;99.90
3758;DHT22;1894;51.038;13.692;2024-03-02T13:17:44;17.00;99.90
3758;DHT22;1894;51.038;13.692;2024-03-02T13:20:13;16.90;99.90
3758;DHT22;1894;51.038;13.692;2024-03-02T13:22:42;17.40;99.90
3758;DHT22;1894;51.038;13.692;2024-03-02T13:25:09;17.30;99.90
3758;DHT22;1894;51.038;13.692;2024-03-02T13:27:38;17.20;99.90
3758;DHT22;1894;51.038;13.692;2024-03-02T13:30:06;16.60;99.90
3758;DHT22;1894;51.038;13.692;2024-03-02T13:32:36;16.20;99.90
3758;DHT22;1894;51.038;13.692;2024-03-02T13:35:03;15.70;99.90
3758;DHT22;1894;51.038;13.692;2024-03-02T13:37:31;15.50;99.90
3758;DHT22;1894;51.038;13.692;2024-03-02T13:39:58;15.50;99.90
3758;DHT22;1894;51.038;13.692;2024-03-02T13:42:25;15.30;99.90
3758;DHT22;1894;51.038;13.692;2024-03-02T13:44:54;15.40;99.90
3758;DHT22;1894;51.038;13.692;2024-03-02T13:47:21;15.40;99.90
3758;DHT22;1894;51.038;13.692;2024-03-02T13:49:51;15.10;99.90
3758;DHT22;1894;51.038;13.692;2024-03-02T13:52:19;15.00;99.90
3758;DHT22;1894;51.038;13.692;2024-03-02T13:54:47;14.80;99.90
3758;DHT22;1894;51.038;13.692;2024-03-02T13:57:15;14.70;99.90
3758;DHT22;1894;51.038;13.692;2024-03-02T13:59:44;14.50;99.90
3758;DHT22;1894;51.038;13.692;2024-03-02T14:02:12;14.20;99.90
3758;DHT22;1894;51.038;13.692;2024-03-02T14:04:40;14.30;99.90
3758;DHT22;1894;51.038;13.692;2024-03-02T14:07:07;14.60;99.90
3758;DHT22;1894;51.038;13.692;2024-03-02T14:09:35;14.20;99.90
3758;DHT22;1894;51.038;13.692;2024-03-02T14:12:04;14.10;99.90
3758;DHT22;1894;51.038;13.692;2024-03-02T14:14:32;13.80;99.90
3758;DHT22;1894;51.038;13.692;2024-03-02T14:16:59;13.90;99.90
3758;DHT22;1894;51.038;13.692;2024-03-02T14:19:31;13.80;99.90
3758;DHT22;1894;51.038;13.692;2024-03-02T14:21:59;13.60;99.90
3758;DHT22;1894;51.038;13.692;2024-03-02T14:24:26;13.50;99.90
3758;DHT22;1894;51.038;13.692;2024-03-02T14:26:56;13.20;99.90
3758;DHT22;1894;51.038;13.692;2024-03-02T14:29:45;13.20;99.90
3758;DHT22;1894;51.038;13.692;2024-03-02T14:32:12;13.30;99.90
3758;DHT22;1894;51.038;13.692;2024-03-02T14:34:39;13.20;99.90
3758;DHT22;1894;51.038;13.692;2024-03-02T14:37:07;13.20;99.90
3758;DHT22;1894;51.038;13.692;2024-03-02T14:39:34;13.10;99.90
3758;DHT22;1894;51.038;13.692;2024-03-02T14:42:03;13.20;99.90
3758;DHT22;1894;51.038;13.692;2024-03-02T14:44:30;13.30;99.90
3758;DHT22;1894;51.038;13.692;2024-03-02T14:46:57;13.20;99.90
3758;DHT22;1894;51.038;13.692;2024-03-02T14:49:28;13.10;99.90
3758;DHT22;1894;51.038;13.692;2024-03-02T14:51:56;13.10;99.90
3758;DHT22;1894;51.038;13.692;2024-03-02T14:54:23;13.10;99.90
3758;DHT22;1894;51.038;13.692;2024-03-02T14:56:50;13.20;99.90
3758;DHT22;1894;51.038;13.692;2024-03-02T14:59:18;13.30;99.90
3758;DHT22;1894;51.038;13.692;2024-03-02T15:01:45;13.00;99.90
3758;DHT22;1894;51.038;13.692;2024-03-02T15:04:13;12.80;99.90
3758;DHT22;1894;51.038;13.692;2024-03-02T15:06:45;13.00;99.90
3758;DHT22;1894;51.038;13.692;2024-03-02T15:09:12;13.00;99.90
3758;DHT22;1894;51.038;13.692;2024-03-02T15:11:40;13.00;99.90
3758;DHT22;1894;51.038;13.692;2024-03-02T15:14:07;13.10;99.90
3758;DHT22;1894;51.038;13.692;2024-03-02T15:16:34;13.00;99.90
3758;DHT22;1894;51.038;13.692;2024-03-02T15:19:01;12.90;99.90
3758;DHT22;1894;51.038;13.692;2024-03-02T15:21:28;12.80;99.90
3758;DHT22;1894;51.038;13.692;2024-03-02T15:23:55;12.80;99.90
3758;DHT22;1894;51.038;13.692;2024-03-02T15:26:23;12.70;99.90
3758;DHT22;1894;51.038;13.692;2024-03-02T15:28:50;12.60;99.90
3758;DHT22;1894;51.038;13.692;2024-03-02T15:31:17;12.40;99.90
3758;DHT22;1894;51.038;13.692;2024-03-02T15:33:44;12.40;99.90
3758;DHT22;1894;51.038;13.692;2024-03-02T15:36:11;12.40;99.90
3758;DHT22;1894;51.038;13.692;2024-03-02T15:38:38;12.20;99.90
3758;DHT22;1894;51.038;13.692;2024-03-02T15:41:08;12.30;99.90
3758;DHT22;1894;51.038;13.692;2024-03-02T15:43:36;12.30;99.90
3758;DHT22;1894;51.038;13.692;2024-03-02T15:46:06;12.10;99.90
3758;DHT22;1894;51.038;13.692;2024-03-02T15:48:34;12.00;99.90
3758;DHT22;1894;51.038;13.692;2024-03-02T15:51:01;12.00;99.90
3758;DHT22;1894;51.038;13.692;2024-03-02T15:53:33;12.10;99.90
3758;DHT22;1894;51.038;13.692;2024-03-02T15:56:00;12.00;99.90
3758;DHT22;1894;51.038;13.692;2024-03-02T15:58:30;12.00;99.90
3758;DHT22;1894;51.038;13.692;2024-03-02T16:00:57;12.00;99.90
3758;DHT22;1894;51.038;13.692;2024-03-02T16:03:25;12.00;99.90
3758;DHT22;1894;51.038;13.692;2024-03-02T16:05:52;11.90;99.90
3758;DHT22;1894;51.038;13.692;2024-03-02T16:08:19;11.80;99.90